sensor_id;sensor_type;location;lat;lon;timestamp;P1;durP1;ratioP1;P2;durP2;ratioP2
25854;SDS011;13680;49.936;11.344;2024-01-27T00:02:24;16.83;;;2.55;;
25854;SDS011;13680;49.936;11.344;2024-01-27T00:04:50;9.00;;;2.30;;
25854;SDS011;13680;49.936;11.344;2024-01-27T00:07:16;12.57;;;2.72;;
25854;SDS011;13680;49.936;11.344;2024-01-27T00:09:41;9.82;;;2.90;;
25854;SDS011;13680;49.936;11.344;2024-01-27T00:12:06;8.00;;;2.33;;
25854;SDS011;13680;49.936;11.344;2024-01-27T00:14:32;9.50;;;2.40;;
25854;SDS011;13680;49.936;11.344;2024-01-27T00:16:57;9.77;;;2.17;;
25854;SDS011;13680;49.936;11.344;2024-01-27T00:19:23;12.40;;;2.67;;
25854;SDS011;13680;49.936;11.344;2024-01-27T00:21:48;7.07;;;2.40;;
25854;SDS011;13680;49.936;11.344;2024-01-27T00:24:14;12.02;;;2.70;;
25854;SDS011;13680;49.936;11.344;2024-01-27T00:26:39;8.60;;;2.70;;
25854;SDS011;13680;49.936;11.344;2024-01-27T00:29:05;13.55;;;2.65;;
25854;SDS011;13680;49.936;11.344;2024-01-27T00:31:30;12.45;;;2.50;;
25854;SDS011;13680;49.936;11.344;2024-01-27T00:33:55;11.57;;;3.10;;
25854;SDS011;13680;49.936;11.344;2024-01-27T00:36:21;14.23;;;2.92;;
25854;SDS011;13680;49.936;11.344;2024-01-27T00:38:46;14.02;;;2.83;;
25854;SDS011;13680;49.936;11.344;2024-01-27T00:41:18;20.08;;;3.38;;
25854;SDS011;13680;49.936;11.344;2024-01-27T00:43:43;15.52;;;3.25;;
25854;SDS011;13680;49.936;11.344;2024-01-27T00:46:09;9.95;;;2.60;;
25854;SDS011;13680;49.936;11.344;2024-01-27T00:48:34;13.77;;;2.50;;
25854;SDS011;13680;49.936;11.344;2024-01-27T00:50:59;15.07;;;3.17;;
25854;SDS011;13680;49.936;11.344;2024-01-27T00:53:24;9.13;;;2.88;;
25854;SDS011;13680;49.936;11.344;2024-01-27T00:55:50;9.98;;;2.83;;
25854;SDS011;13680;49.936;11.344;2024-01-27T00:58:15;12.50;;;3.05;;
25854;SDS011;13680;49.936;11.344;2024-01-27T01:00:41;12.52;;;2.85;;
25854;SDS011;13680;49.936;11.344;2024-01-27T01:03:06;14.27;;;3.03;;
25854;SDS011;13680;49.936;11.344;2024-01-27T01:05:32;10.30;;;2.95;;
25854;SDS011;13680;49.936;11.344;2024-01-27T01:07:57;8.82;;;2.55;;
25854;SDS011;13680;49.936;11.344;2024-01-27T01:10:22;11.73;;;3.33;;
25854;SDS011;13680;49.936;11.344;2024-01-27T01:12:48;14.50;;;3.13;;
25854;SDS011;13680;49.936;11.344;2024-01-27T01:15:13;8.45;;;3.20;;
25854;SDS011;13680;49.936;11.344;2024-01-27T01:17:38;12.45;;;3.38;;
25854;SDS011;13680;49.936;11.344;2024-01-27T01:20:04;11.75;;;2.72;;
25854;SDS011;13680;49.936;11.344;2024-01-27T01:22:30;15.68;;;3.15;;
25854;SDS011;13680;49.936;11.344;2024-01-27T01:24:56;14.82;;;3.20;;
25854;SDS011;13680;49.936;11.344;2024-01-27T01:27:21;10.43;;;2.95;;
25854;SDS011;13680;49.936;11.344;2024-01-27T01:29:46;7.78;;;2.75;;
25854;SDS011;13680;49.936;11.344;2024-01-27T01:32:12;14.65;;;4.35;;
25854;SDS011;13680;49.936;11.344;2024-01-27T01:34:37;12.82;;;3.80;;
25854;SDS011;13680;49.936;11.344;2024-01-27T01:37:02;12.20;;;3.00;;
25854;SDS011;13680;49.936;11.344;2024-01-27T01:39:28;9.93;;;2.95;;
25854;SDS011;13680;49.936;11.344;2024-01-27T01:41:54;12.02;;;4.50;;
25854;SDS011;13680;49.936;11.344;2024-01-27T01:44:19;21.08;;;5.72;;
25854;SDS011;13680;49.936;11.344;2024-01-27T01:46:45;19.60;;;5.47;;
25854;SDS011;13680;49.936;11.344;2024-01-27T01:49:10;23.42;;;5.60;;
25854;SDS011;13680;49.936;11.344;2024-01-27T01:51:35;9.65;;;3.60;;
25854;SDS011;13680;49.936;11.344;2024-01-27T01:54:01;13.43;;;3.65;;
25854;SDS011;13680;49.936;11.344;2024-01-27T01:56:27;13.05;;;3.88;;
25854;SDS011;13680;49.936;11.344;2024-01-27T01:58:54;13.30;;;3.15;;
25854;SDS011;13680;49.936;11.344;2024-01-27T02:01:19;9.05;;;3.13;;
25854;SDS011;13680;49.936;11.344;2024-01-27T02:03:55;10.88;;;3.50;;
25854;SDS011;13680;49.936;11.344;2024-01-27T02:06:21;10.45;;;3.80;;
25854;SDS011;13680;49.936;11.344;2024-01-27T02:08:47;7.68;;;3.00;;
25854;SDS011;13680;49.936;11.344;2024-01-27T02:11:12;12.45;;;3.55;;
25854;SDS011;13680;49.936;11.344;2024-01-27T02:13:38;14.80;;;3.47;;
25854;SDS011;13680;49.936;11.344;2024-01-27T02:16:03;9.55;;;3.08;;
25854;SDS011;13680;49.936;11.344;2024-01-27T02:18:29;11.27;;;3.22;;
25854;SDS011;13680;49.936;11.344;2024-01-27T02:20:54;10.95;;;2.85;;
25854;SDS011;13680;49.936;11.344;2024-01-27T02:23:19;13.82;;;3.28;;
25854;SDS011;13680;49.936;11.344;2024-01-27T02:25:45;18.02;;;3.95;;
25854;SDS011;13680;49.936;11.344;2024-01-27T02:28:10;14.00;;;3.33;;
25854;SDS011;13680;49.936;11.344;2024-01-27T02:30:37;7.43;;;2.90;;
25854;SDS011;13680;49.936;11.344;2024-01-27T02:33:03;18.45;;;3.90;;
25854;SDS011;13680;49.936;11.344;2024-01-27T02:35:29;18.02;;;3.60;;
25854;SDS011;13680;49.936;11.344;2024-01-27T02:37:54;11.10;;;3.25;;
25854;SDS011;13680;49.936;11.344;2024-01-27T02:40:19;15.98;;;3.30;;
25854;SDS011;13680;49.936;11.344;2024-01-27T02:42:44;18.95;;;3.78;;
25854;SDS011;13680;49.936;11.344;2024-01-27T02:45:10;14.82;;;3.20;;
25854;SDS011;13680;49.936;11.344;2024-01-27T02:47:38;15.05;;;3.50;;
25854;SDS011;13680;49.936;11.344;2024-01-27T02:50:04;11.43;;;2.72;;
25854;SDS011;13680;49.936;11.344;2024-01-27T02:52:31;12.85;;;3.00;;
25854;SDS011;13680;49.936;11.344;2024-01-27T02:54:57;14.63;;;3.72;;
25854;SDS011;13680;49.936;11.344;2024-01-27T02:57:22;15.93;;;3.40;;
25854;SDS011;13680;49.936;11.344;2024-01-27T02:59:48;9.82;;;3.15;;
25854;SDS011;13680;49.936;11.344;2024-01-27T03:02:13;17.55;;;3.78;;
25854;SDS011;13680;49.936;11.344;2024-01-27T03:04:39;13.55;;;3.97;;
25854;SDS011;13680;49.936;11.344;2024-01-27T03:07:04;19.83;;;3.33;;
25854;SDS011;13680;49.936;11.344;2024-01-27T03:09:30;12.40;;;3.38;;
25854;SDS011;13680;49.936;11.344;2024-01-27T03:11:56;21.05;;;3.85;;
25854;SDS011;13680;49.936;11.344;2024-01-27T03:14:21;14.95;;;3.53;;
25854;SDS011;13680;49.936;11.344;2024-01-27T03:16:46;13.93;;;4.00;;
25854;SDS011;13680;49.936;11.344;2024-01-27T03:19:12;14.73;;;4.80;;
25854;SDS011;13680;49.936;11.344;2024-01-27T03:21:37;10.38;;;3.35;;
25854;SDS011;13680;49.936;11.344;2024-01-27T03:24:02;12.80;;;3.75;;
25854;SDS011;13680;49.936;11.344;2024-01-27T03:26:28;18.35;;;4.13;;
25854;SDS011;13680;49.936;11.344;2024-01-27T03:28:53;13.52;;;3.72;;
25854;SDS011;13680;49.936;11.344;2024-01-27T03:31:19;20.40;;;3.67;;
25854;SDS011;13680;49.936;11.344;2024-01-27T03:33:44;13.55;;;3.90;;
25854;SDS011;13680;49.936;11.344;2024-01-27T03:36:10;15.10;;;4.10;;
25854;SDS011;13680;49.936;11.344;2024-01-27T03:38:37;18.42;;;3.85;;
25854;SDS011;13680;49.936;11.344;2024-01-27T03:41:03;18.20;;;3.70;;
25854;SDS011;13680;49.936;11.344;2024-01-27T03:43:28;18.50;;;3.70;;
25854;SDS011;13680;49.936;11.344;2024-01-27T03:45:55;13.85;;;3.47;;
25854;SDS011;13680;49.936;11.344;2024-01-27T03:48:20;20.33;;;4.03;;
25854;SDS011;13680;49.936;11.344;2024-01-27T03:50:46;17.33;;;3.97;;
25854;SDS011;13680;49.936;11.344;2024-01-27T03:53:11;11.73;;;3.50;;
25854;SDS011;13680;49.936;11.344;2024-01-27T03:55:36;14.52;;;3.58;;
25854;SDS011;13680;49.936;11.344;2024-01-27T03:58:02;16.13;;;3.78;;
25854;SDS011;13680;49.936;11.344;2024-01-27T04:00:27;14.10;;;3.88;;
25854;SDS011;13680;49.936;11.344;2024-01-27T04:02:54;24.52;;;5.10;;
25854;SDS011;13680;49.936;11.344;2024-01-27T04:05:20;15.60;;;4.20;;
25854;SDS011;13680;49.936;11.344;2024-01-27T04:07:46;18.38;;;3.90;;
25854;SDS011;13680;49.936;11.344;2024-01-27T04:10:11;17.73;;;4.10;;
25854;SDS011;13680;49.936;11.344;2024-01-27T04:12:36;18.13;;;4.13;;
25854;SDS011;13680;49.936;11.344;2024-01-27T04:15:02;14.18;;;3.75;;
25854;SDS011;13680;49.936;11.344;2024-01-27T04:17:27;11.73;;;3.17;;
25854;SDS011;13680;49.936;11.344;2024-01-27T04:19:52;15.38;;;4.28;;
25854;SDS011;13680;49.936;11.344;2024-01-27T04:22:17;16.63;;;3.45;;
25854;SDS011;13680;49.936;11.344;2024-01-27T04:24:43;23.27;;;3.92;;
25854;SDS011;13680;49.936;11.344;2024-01-27T04:27:08;15.90;;;4.00;;
25854;SDS011;13680;49.936;11.344;2024-01-27T04:29:35;13.63;;;3.78;;
25854;SDS011;13680;49.936;11.344;2024-01-27T04:32:01;17.55;;;4.38;;
25854;SDS011;13680;49.936;11.344;2024-01-27T04:34:26;17.73;;;4.60;;
25854;SDS011;13680;49.936;11.344;2024-01-27T04:36:51;14.57;;;3.40;;
25854;SDS011;13680;49.936;11.344;2024-01-27T04:39:17;15.73;;;3.63;;
25854;SDS011;13680;49.936;11.344;2024-01-27T04:41:42;17.85;;;3.60;;
25854;SDS011;13680;49.936;11.344;2024-01-27T04:44:08;16.90;;;4.28;;
25854;SDS011;13680;49.936;11.344;2024-01-27T04:46:34;14.05;;;4.43;;
25854;SDS011;13680;49.936;11.344;2024-01-27T04:48:59;17.77;;;3.92;;
25854;SDS011;13680;49.936;11.344;2024-01-27T04:51:25;13.55;;;3.15;;
25854;SDS011;13680;49.936;11.344;2024-01-27T04:53:50;16.50;;;3.60;;
25854;SDS011;13680;49.936;11.344;2024-01-27T04:56:15;21.88;;;3.95;;
25854;SDS011;13680;49.936;11.344;2024-01-27T04:58:40;17.02;;;3.85;;
25854;SDS011;13680;49.936;11.344;2024-01-27T05:01:06;13.70;;;3.85;;
25854;SDS011;13680;49.936;11.344;2024-01-27T05:03:31;17.77;;;3.88;;
25854;SDS011;13680;49.936;11.344;2024-01-27T05:05:57;13.90;;;3.50;;
25854;SDS011;13680;49.936;11.344;2024-01-27T05:08:22;14.38;;;3.70;;
25854;SDS011;13680;49.936;11.344;2024-01-27T05:10:48;17.75;;;3.53;;
25854;SDS011;13680;49.936;11.344;2024-01-27T05:13:13;19.08;;;3.63;;
25854;SDS011;13680;49.936;11.344;2024-01-27T05:15:38;13.07;;;3.20;;
25854;SDS011;13680;49.936;11.344;2024-01-27T05:18:04;13.88;;;3.40;;
25854;SDS011;13680;49.936;11.344;2024-01-27T05:20:29;25.98;;;3.70;;
25854;SDS011;13680;49.936;11.344;2024-01-27T05:22:54;22.27;;;3.85;;
25854;SDS011;13680;49.936;11.344;2024-01-27T05:25:20;12.25;;;3.22;;
25854;SDS011;13680;49.936;11.344;2024-01-27T05:27:45;16.67;;;3.53;;
25854;SDS011;13680;49.936;11.344;2024-01-27T05:30:10;16.98;;;3.40;;
25854;SDS011;13680;49.936;11.344;2024-01-27T05:32:36;18.63;;;3.70;;
25854;SDS011;13680;49.936;11.344;2024-01-27T05:35:02;15.23;;;3.40;;
25854;SDS011;13680;49.936;11.344;2024-01-27T05:37:28;15.02;;;3.28;;
25854;SDS011;13680;49.936;11.344;2024-01-27T05:39:54;14.27;;;3.42;;
25854;SDS011;13680;49.936;11.344;2024-01-27T05:42:19;15.80;;;3.53;;
25854;SDS011;13680;49.936;11.344;2024-01-27T05:44:44;18.15;;;3.90;;
25854;SDS011;13680;49.936;11.344;2024-01-27T05:47:10;15.70;;;3.65;;
25854;SDS011;13680;49.936;11.344;2024-01-27T05:49:36;15.70;;;3.95;;
25854;SDS011;13680;49.936;11.344;2024-01-27T05:52:01;15.70;;;3.70;;
25854;SDS011;13680;49.936;11.344;2024-01-27T05:54:27;20.65;;;4.75;;
25854;SDS011;13680;49.936;11.344;2024-01-27T05:56:52;24.80;;;4.88;;
25854;SDS011;13680;49.936;11.344;2024-01-27T05:59:17;14.40;;;4.90;;
25854;SDS011;13680;49.936;11.344;2024-01-27T06:01:43;17.63;;;4.65;;
25854;SDS011;13680;49.936;11.344;2024-01-27T06:04:10;17.95;;;4.10;;
25854;SDS011;13680;49.936;11.344;2024-01-27T06:06:38;18.95;;;3.67;;
25854;SDS011;13680;49.936;11.344;2024-01-27T06:09:04;15.38;;;3.50;;
25854;SDS011;13680;49.936;11.344;2024-01-27T06:11:29;27.95;;;3.88;;
25854;SDS011;13680;49.936;11.344;2024-01-27T06:13:55;13.48;;;4.07;;
25854;SDS011;13680;49.936;11.344;2024-01-27T06:16:20;15.30;;;4.03;;
25854;SDS011;13680;49.936;11.344;2024-01-27T06:18:46;18.20;;;5.82;;
25854;SDS011;13680;49.936;11.344;2024-01-27T06:21:11;13.32;;;3.67;;
25854;SDS011;13680;49.936;11.344;2024-01-27T06:23:36;17.42;;;4.03;;
25854;SDS011;13680;49.936;11.344;2024-01-27T06:26:08;12.55;;;3.33;;
25854;SDS011;13680;49.936;11.344;2024-01-27T06:28:34;14.57;;;3.58;;
25854;SDS011;13680;49.936;11.344;2024-01-27T06:31:00;13.35;;;3.97;;
25854;SDS011;13680;49.936;11.344;2024-01-27T06:33:26;14.40;;;3.40;;
25854;SDS011;13680;49.936;11.344;2024-01-27T06:35:51;14.13;;;3.92;;
25854;SDS011;13680;49.936;11.344;2024-01-27T06:38:16;15.02;;;3.88;;
25854;SDS011;13680;49.936;11.344;2024-01-27T06:40:42;14.32;;;3.88;;
25854;SDS011;13680;49.936;11.344;2024-01-27T06:43:07;16.63;;;3.88;;
25854;SDS011;13680;49.936;11.344;2024-01-27T06:45:32;15.52;;;4.00;;
25854;SDS011;13680;49.936;11.344;2024-01-27T06:47:58;19.90;;;4.05;;
25854;SDS011;13680;49.936;11.344;2024-01-27T06:50:23;15.07;;;4.07;;
25854;SDS011;13680;49.936;11.344;2024-01-27T06:52:48;15.68;;;3.85;;
25854;SDS011;13680;49.936;11.344;2024-01-27T06:55:14;18.35;;;3.50;;
25854;SDS011;13680;49.936;11.344;2024-01-27T06:57:39;14.50;;;3.65;;
25854;SDS011;13680;49.936;11.344;2024-01-27T07:00:06;17.90;;;3.70;;
25854;SDS011;13680;49.936;11.344;2024-01-27T07:02:31;20.35;;;3.90;;
25854;SDS011;13680;49.936;11.344;2024-01-27T07:04:57;17.92;;;3.55;;
25854;SDS011;13680;49.936;11.344;2024-01-27T07:07:26;17.08;;;4.30;;
25854;SDS011;13680;49.936;11.344;2024-01-27T07:09:54;16.25;;;3.88;;
25854;SDS011;13680;49.936;11.344;2024-01-27T07:12:20;18.50;;;4.00;;
25854;SDS011;13680;49.936;11.344;2024-01-27T07:14:45;23.23;;;3.72;;
25854;SDS011;13680;49.936;11.344;2024-01-27T07:17:11;14.38;;;3.22;;
25854;SDS011;13680;49.936;11.344;2024-01-27T07:19:36;21.17;;;4.47;;
25854;SDS011;13680;49.936;11.344;2024-01-27T07:22:01;15.02;;;3.38;;
25854;SDS011;13680;49.936;11.344;2024-01-27T07:24:28;9.13;;;3.53;;
25854;SDS011;13680;49.936;11.344;2024-01-27T07:26:54;23.75;;;3.80;;
25854;SDS011;13680;49.936;11.344;2024-01-27T07:29:20;21.63;;;3.80;;
25854;SDS011;13680;49.936;11.344;2024-01-27T07:31:46;18.30;;;3.45;;
25854;SDS011;13680;49.936;11.344;2024-01-27T07:34:11;16.73;;;3.33;;
25854;SDS011;13680;49.936;11.344;2024-01-27T07:36:36;22.98;;;5.03;;
25854;SDS011;13680;49.936;11.344;2024-01-27T07:39:02;16.40;;;4.85;;
25854;SDS011;13680;49.936;11.344;2024-01-27T07:41:29;14.05;;;4.18;;
25854;SDS011;13680;49.936;11.344;2024-01-27T07:43:55;19.70;;;4.22;;
25854;SDS011;13680;49.936;11.344;2024-01-27T07:46:21;15.50;;;4.32;;
25854;SDS011;13680;49.936;11.344;2024-01-27T07:48:48;21.25;;;4.25;;
25854;SDS011;13680;49.936;11.344;2024-01-27T07:51:14;23.25;;;3.88;;
25854;SDS011;13680;49.936;11.344;2024-01-27T07:53:40;28.55;;;4.13;;
25854;SDS011;13680;49.936;11.344;2024-01-27T07:56:05;12.13;;;3.53;;
25854;SDS011;13680;49.936;11.344;2024-01-27T07:58:32;20.65;;;3.88;;
25854;SDS011;13680;49.936;11.344;2024-01-27T08:00:57;16.63;;;3.70;;
25854;SDS011;13680;49.936;11.344;2024-01-27T08:03:23;22.77;;;3.75;;
25854;SDS011;13680;49.936;11.344;2024-01-27T08:05:49;16.67;;;4.55;;
25854;SDS011;13680;49.936;11.344;2024-01-27T08:08:15;18.83;;;3.70;;
25854;SDS011;13680;49.936;11.344;2024-01-27T08:10:40;17.02;;;4.15;;
25854;SDS011;13680;49.936;11.344;2024-01-27T08:13:06;11.00;;;3.33;;
25854;SDS011;13680;49.936;11.344;2024-01-27T08:15:32;15.45;;;3.70;;
25854;SDS011;13680;49.936;11.344;2024-01-27T08:17:57;19.25;;;4.15;;
25854;SDS011;13680;49.936;11.344;2024-01-27T08:20:22;19.83;;;3.72;;
25854;SDS011;13680;49.936;11.344;2024-01-27T08:22:48;16.15;;;3.88;;
25854;SDS011;13680;49.936;11.344;2024-01-27T08:25:16;16.95;;;3.13;;
25854;SDS011;13680;49.936;11.344;2024-01-27T08:27:41;14.50;;;4.22;;
25854;SDS011;13680;49.936;11.344;2024-01-27T08:30:07;30.67;;;3.95;;
25854;SDS011;13680;49.936;11.344;2024-01-27T08:32:33;17.40;;;4.13;;
25854;SDS011;13680;49.936;11.344;2024-01-27T08:34:59;13.55;;;4.05;;
25854;SDS011;13680;49.936;11.344;2024-01-27T08:37:25;19.90;;;4.13;;
25854;SDS011;13680;49.936;11.344;2024-01-27T08:39:50;17.75;;;3.88;;
25854;SDS011;13680;49.936;11.344;2024-01-27T08:42:16;24.90;;;3.88;;
25854;SDS011;13680;49.936;11.344;2024-01-27T08:44:41;18.80;;;3.95;;
25854;SDS011;13680;49.936;11.344;2024-01-27T08:47:07;18.77;;;4.00;;
25854;SDS011;13680;49.936;11.344;2024-01-27T08:49:32;17.27;;;4.53;;
25854;SDS011;13680;49.936;11.344;2024-01-27T08:51:58;25.45;;;4.15;;
25854;SDS011;13680;49.936;11.344;2024-01-27T08:54:23;21.70;;;4.03;;
25854;SDS011;13680;49.936;11.344;2024-01-27T08:56:49;11.15;;;3.42;;
25854;SDS011;13680;49.936;11.344;2024-01-27T08:59:14;18.15;;;4.93;;
25854;SDS011;13680;49.936;11.344;2024-01-27T09:01:39;19.33;;;5.00;;
25854;SDS011;13680;49.936;11.344;2024-01-27T09:04:05;19.23;;;4.72;;
25854;SDS011;13680;49.936;11.344;2024-01-27T09:06:30;18.88;;;5.82;;
25854;SDS011;13680;49.936;11.344;2024-01-27T09:08:55;18.70;;;4.88;;
25854;SDS011;13680;49.936;11.344;2024-01-27T09:11:21;27.42;;;5.75;;
25854;SDS011;13680;49.936;11.344;2024-01-27T09:13:49;23.92;;;6.03;;
25854;SDS011;13680;49.936;11.344;2024-01-27T09:16:17;24.95;;;6.03;;
25854;SDS011;13680;49.936;11.344;2024-01-27T09:18:42;21.85;;;6.15;;
25854;SDS011;13680;49.936;11.344;2024-01-27T09:21:08;23.98;;;5.88;;
25854;SDS011;13680;49.936;11.344;2024-01-27T09:23:34;26.58;;;6.35;;
25854;SDS011;13680;49.936;11.344;2024-01-27T09:25:59;19.15;;;5.07;;
25854;SDS011;13680;49.936;11.344;2024-01-27T09:28:25;16.17;;;3.67;;
25854;SDS011;13680;49.936;11.344;2024-01-27T09:30:50;12.15;;;3.55;;
25854;SDS011;13680;49.936;11.344;2024-01-27T09:33:16;25.75;;;4.35;;
25854;SDS011;13680;49.936;11.344;2024-01-27T09:35:44;20.27;;;3.95;;
25854;SDS011;13680;49.936;11.344;2024-01-27T09:38:10;21.67;;;3.90;;
25854;SDS011;13680;49.936;11.344;2024-01-27T09:40:37;17.45;;;3.67;;
25854;SDS011;13680;49.936;11.344;2024-01-27T09:43:03;29.10;;;4.82;;
25854;SDS011;13680;49.936;11.344;2024-01-27T09:45:29;22.60;;;4.10;;
25854;SDS011;13680;49.936;11.344;2024-01-27T09:47:57;12.35;;;3.45;;
25854;SDS011;13680;49.936;11.344;2024-01-27T09:50:25;16.52;;;3.72;;
25854;SDS011;13680;49.936;11.344;2024-01-27T09:52:51;11.68;;;3.10;;
25854;SDS011;13680;49.936;11.344;2024-01-27T09:55:17;20.38;;;3.65;;
25854;SDS011;13680;49.936;11.344;2024-01-27T09:57:42;18.25;;;3.72;;
25854;SDS011;13680;49.936;11.344;2024-01-27T10:00:10;26.70;;;4.68;;
25854;SDS011;13680;49.936;11.344;2024-01-27T10:02:41;15.48;;;3.25;;
25854;SDS011;13680;49.936;11.344;2024-01-27T10:05:11;17.25;;;3.65;;
25854;SDS011;13680;49.936;11.344;2024-01-27T10:07:37;21.90;;;3.85;;
25854;SDS011;13680;49.936;11.344;2024-01-27T10:10:03;17.25;;;3.38;;
25854;SDS011;13680;49.936;11.344;2024-01-27T10:12:31;17.67;;;3.45;;
25854;SDS011;13680;49.936;11.344;2024-01-27T10:14:57;14.48;;;3.33;;
25854;SDS011;13680;49.936;11.344;2024-01-27T10:17:25;16.88;;;3.35;;
25854;SDS011;13680;49.936;11.344;2024-01-27T10:20:03;20.88;;;3.40;;
25854;SDS011;13680;49.936;11.344;2024-01-27T10:22:37;13.77;;;3.25;;
25854;SDS011;13680;49.936;11.344;2024-01-27T10:25:03;13.55;;;3.35;;
25854;SDS011;13680;49.936;11.344;2024-01-27T10:27:28;19.55;;;4.68;;
25854;SDS011;13680;49.936;11.344;2024-01-27T10:29:54;28.48;;;7.15;;
25854;SDS011;13680;49.936;11.344;2024-01-27T10:32:20;27.13;;;6.60;;
25854;SDS011;13680;49.936;11.344;2024-01-27T10:34:48;25.67;;;5.45;;
25854;SDS011;13680;49.936;11.344;2024-01-27T10:37:15;24.27;;;5.00;;
25854;SDS011;13680;49.936;11.344;2024-01-27T10:39:40;15.48;;;4.18;;
25854;SDS011;13680;49.936;11.344;2024-01-27T10:42:06;18.17;;;3.80;;
25854;SDS011;13680;49.936;11.344;2024-01-27T10:44:34;14.23;;;2.92;;
25854;SDS011;13680;49.936;11.344;2024-01-27T10:47:03;15.95;;;4.10;;
25854;SDS011;13680;49.936;11.344;2024-01-27T10:49:31;20.50;;;4.10;;
25854;SDS011;13680;49.936;11.344;2024-01-27T10:51:59;19.05;;;3.83;;
25854;SDS011;13680;49.936;11.344;2024-01-27T10:54:28;20.15;;;4.20;;
25854;SDS011;13680;49.936;11.344;2024-01-27T10:56:55;11.00;;;2.60;;
25854;SDS011;13680;49.936;11.344;2024-01-27T10:59:22;28.70;;;4.00;;
25854;SDS011;13680;49.936;11.344;2024-01-27T11:01:49;12.15;;;3.22;;
25854;SDS011;13680;49.936;11.344;2024-01-27T11:04:18;12.57;;;3.17;;
25854;SDS011;13680;49.936;11.344;2024-01-27T11:06:44;14.65;;;3.00;;
25854;SDS011;13680;49.936;11.344;2024-01-27T11:09:12;15.65;;;3.38;;
25854;SDS011;13680;49.936;11.344;2024-01-27T11:11:39;16.35;;;3.03;;
25854;SDS011;13680;49.936;11.344;2024-01-27T11:14:07;15.50;;;3.10;;
25854;SDS011;13680;49.936;11.344;2024-01-27T11:16:34;25.40;;;4.90;;
25854;SDS011;13680;49.936;11.344;2024-01-27T11:19:00;21.67;;;4.00;;
25854;SDS011;13680;49.936;11.344;2024-01-27T11:21:25;19.05;;;3.50;;
25854;SDS011;13680;49.936;11.344;2024-01-27T11:23:50;16.73;;;2.95;;
25854;SDS011;13680;49.936;11.344;2024-01-27T11:26:20;11.55;;;3.13;;
25854;SDS011;13680;49.936;11.344;2024-01-27T11:28:47;17.80;;;3.00;;
25854;SDS011;13680;49.936;11.344;2024-01-27T11:31:15;13.48;;;3.10;;
25854;SDS011;13680;49.936;11.344;2024-01-27T11:33:43;16.15;;;2.88;;
25854;SDS011;13680;49.936;11.344;2024-01-27T11:36:17;17.90;;;3.25;;
25854;SDS011;13680;49.936;11.344;2024-01-27T11:38:44;14.10;;;2.53;;
25854;SDS011;13680;49.936;11.344;2024-01-27T11:41:10;17.48;;;2.88;;
25854;SDS011;13680;49.936;11.344;2024-01-27T11:43:36;17.20;;;2.85;;
25854;SDS011;13680;49.936;11.344;2024-01-27T11:46:01;24.23;;;4.47;;
25854;SDS011;13680;49.936;11.344;2024-01-27T11:48:26;19.15;;;3.45;;
25854;SDS011;13680;49.936;11.344;2024-01-27T11:51:04;12.65;;;2.78;;
25854;SDS011;13680;49.936;11.344;2024-01-27T11:53:31;12.88;;;2.65;;
25854;SDS011;13680;49.936;11.344;2024-01-27T11:55:56;12.73;;;2.70;;
25854;SDS011;13680;49.936;11.344;2024-01-27T11:58:22;16.27;;;3.22;;
25854;SDS011;13680;49.936;11.344;2024-01-27T12:00:47;12.90;;;3.33;;
25854;SDS011;13680;49.936;11.344;2024-01-27T12:03:13;18.30;;;3.58;;
25854;SDS011;13680;49.936;11.344;2024-01-27T12:05:38;18.80;;;4.07;;
25854;SDS011;13680;49.936;11.344;2024-01-27T12:08:04;8.57;;;2.92;;
25854;SDS011;13680;49.936;11.344;2024-01-27T12:10:33;18.23;;;3.25;;
25854;SDS011;13680;49.936;11.344;2024-01-27T12:12:59;27.55;;;6.07;;
25854;SDS011;13680;49.936;11.344;2024-01-27T12:15:25;10.98;;;3.03;;
25854;SDS011;13680;49.936;11.344;2024-01-27T12:17:51;14.52;;;3.50;;
25854;SDS011;13680;49.936;11.344;2024-01-27T12:20:17;14.82;;;3.05;;
25854;SDS011;13680;49.936;11.344;2024-01-27T12:22:42;15.93;;;2.63;;
25854;SDS011;13680;49.936;11.344;2024-01-27T12:25:08;13.30;;;2.45;;
25854;SDS011;13680;49.936;11.344;2024-01-27T12:27:35;11.90;;;3.03;;
25854;SDS011;13680;49.936;11.344;2024-01-27T12:30:01;16.00;;;3.20;;
25854;SDS011;13680;49.936;11.344;2024-01-27T12:32:27;14.38;;;3.30;;
25854;SDS011;13680;49.936;11.344;2024-01-27T12:34:53;16.42;;;3.28;;
25854;SDS011;13680;49.936;11.344;2024-01-27T12:37:20;19.92;;;3.15;;
25854;SDS011;13680;49.936;11.344;2024-01-27T12:39:46;15.90;;;3.55;;
25854;SDS011;13680;49.936;11.344;2024-01-27T12:42:15;13.05;;;3.33;;
25854;SDS011;13680;49.936;11.344;2024-01-27T12:44:41;15.57;;;2.80;;
25854;SDS011;13680;49.936;11.344;2024-01-27T12:47:07;14.52;;;3.42;;
25854;SDS011;13680;49.936;11.344;2024-01-27T12:49:35;13.40;;;3.38;;
25854;SDS011;13680;49.936;11.344;2024-01-27T12:52:00;18.58;;;3.20;;
25854;SDS011;13680;49.936;11.344;2024-01-27T12:54:26;13.50;;;3.45;;
25854;SDS011;13680;49.936;11.344;2024-01-27T12:56:51;17.63;;;3.22;;
25854;SDS011;13680;49.936;11.344;2024-01-27T12:59:16;13.85;;;3.00;;
25854;SDS011;13680;49.936;11.344;2024-01-27T13:01:42;15.75;;;2.80;;
25854;SDS011;13680;49.936;11.344;2024-01-27T13:04:07;18.20;;;2.80;;
25854;SDS011;13680;49.936;11.344;2024-01-27T13:06:33;18.63;;;2.65;;
25854;SDS011;13680;49.936;11.344;2024-01-27T13:08:58;17.75;;;3.33;;
25854;SDS011;13680;49.936;11.344;2024-01-27T13:11:24;17.58;;;3.75;;
25854;SDS011;13680;49.936;11.344;2024-01-27T13:13:49;11.82;;;3.13;;
25854;SDS011;13680;49.936;11.344;2024-01-27T13:16:15;19.10;;;3.50;;
25854;SDS011;13680;49.936;11.344;2024-01-27T13:18:40;13.88;;;2.50;;
25854;SDS011;13680;49.936;11.344;2024-01-27T13:21:06;12.57;;;2.95;;
25854;SDS011;13680;49.936;11.344;2024-01-27T13:23:31;15.52;;;3.42;;
25854;SDS011;13680;49.936;11.344;2024-01-27T13:25:57;21.75;;;2.78;;
25854;SDS011;13680;49.936;11.344;2024-01-27T13:28:23;13.43;;;2.60;;
25854;SDS011;13680;49.936;11.344;2024-01-27T13:30:48;24.27;;;3.00;;
25854;SDS011;13680;49.936;11.344;2024-01-27T13:33:14;12.43;;;2.85;;
25854;SDS011;13680;49.936;11.344;2024-01-27T13:35:40;21.60;;;2.67;;
25854;SDS011;13680;49.936;11.344;2024-01-27T13:38:09;18.50;;;3.15;;
25854;SDS011;13680;49.936;11.344;2024-01-27T13:40:34;12.98;;;2.72;;
25854;SDS011;13680;49.936;11.344;2024-01-27T13:42:59;18.98;;;2.65;;
25854;SDS011;13680;49.936;11.344;2024-01-27T13:45:25;16.00;;;3.05;;
25854;SDS011;13680;49.936;11.344;2024-01-27T13:47:50;17.83;;;3.17;;
25854;SDS011;13680;49.936;11.344;2024-01-27T13:50:16;14.65;;;3.67;;
25854;SDS011;13680;49.936;11.344;2024-01-27T13:52:41;20.13;;;3.65;;
25854;SDS011;13680;49.936;11.344;2024-01-27T13:55:08;19.45;;;3.50;;
25854;SDS011;13680;49.936;11.344;2024-01-27T13:57:34;13.75;;;3.22;;
25854;SDS011;13680;49.936;11.344;2024-01-27T14:00:00;16.80;;;3.33;;
25854;SDS011;13680;49.936;11.344;2024-01-27T14:02:25;21.20;;;4.20;;
25854;SDS011;13680;49.936;11.344;2024-01-27T14:04:50;14.45;;;3.67;;
25854;SDS011;13680;49.936;11.344;2024-01-27T14:07:16;18.80;;;3.92;;
25854;SDS011;13680;49.936;11.344;2024-01-27T14:09:42;15.15;;;4.03;;
25854;SDS011;13680;49.936;11.344;2024-01-27T14:12:09;13.75;;;3.25;;
25854;SDS011;13680;49.936;11.344;2024-01-27T14:14:35;16.20;;;2.47;;
25854;SDS011;13680;49.936;11.344;2024-01-27T14:17:03;26.30;;;3.92;;